East Smethport, Pennsylvania
Current Conditions -  °F | °C
As of 5:53 AM on Sunday 26 Oct 2014 (Local Time) from KBFD Reporting Station
Clear Clear  
Wind Chill:   Ceiling: Unl
Heat Index:   Visibility: 10mi
Dew Point:   Wind: 9mph
Humidity: 74%   Direction: 280°W
Pressure: 29.71"   Gusts: NA
Location:  41.81°N, 78.42°W
Report Text: KBFD 260953Z AUTO 28008KT 10SM CLR 06/02 A2971 RMK AO2 SLP059 T00610017
Loading
Personal Weather Stations






























Interactive Weather Map
Tropical Storm Tracking
New forecast layout! Learn more

10-Day Weather Forecast

Advertisements
Track Severe Weather on mobile